Time;durP1;ratioP1;P1;durP2;ratioP2;P2;SDS_P1;SDS_P2;PMS_P1;PMS_P2;Temp;Humidity;BMP_temperature;BMP_pressure;BME280_temperature;BME280_humidity;BME280_pressure;Samples;Min_cycle;Max_cycle;Signal;HPM_P1;HPM_P2
2021/10/11 00:02:02;;;;;;;81.05;43.33;;;;;;;8.45;89.77;102318.19;5006066;28;20049;-75
2021/10/11 00:04:28;;;;;;;81.45;41.15;;;;;;;8.46;89.69;102331.03;5007001;28;20042;-75
2021/10/11 00:06:53;;;;;;;90.25;41.80;;;;;;;8.47;89.52;102322.31;5008907;28;20042;-74
2021/10/11 00:09:19;;;;;;;82.60;42.30;;;;;;;8.49;90.18;102319.63;5005055;28;20037;-75
2021/10/11 00:11:44;;;;;;;83.70;41.42;;;;;;;8.51;90.21;102322.94;5005973;28;20103;-75
2021/10/11 00:14:10;;;;;;;86.10;43.63;;;;;;;8.53;90.28;102321.06;5006477;28;20030;-75
2021/10/11 00:16:35;;;;;;;76.25;40.35;;;;;;;8.55;90.15;102335.56;4998891;28;20461;-74
2021/10/11 00:19:04;;;;;;;78.50;42.00;;;;;;;8.58;90.39;102337.09;5006121;28;20045;-75
2021/10/11 00:21:29;;;;;;;104.88;49.70;;;;;;;8.62;90.48;102338.53;5013448;28;20029;-75
2021/10/11 00:23:54;;;;;;;97.68;47.47;;;;;;;8.65;90.88;102338.34;5008955;28;20042;-76
2021/10/11 00:26:20;;;;;;;96.47;48.75;;;;;;;8.67;91.13;102338.25;5014844;28;20030;-74
2021/10/11 00:28:45;;;;;;;94.75;46.17;;;;;;;8.71;91.41;102326.75;5008223;28;20406;-75
2021/10/11 00:31:11;;;;;;;105.68;50.42;;;;;;;8.72;91.43;102329.22;5008675;28;20041;-75
2021/10/11 00:33:37;;;;;;;112.32;54.13;;;;;;;8.76;91.87;102325.50;5012383;28;20034;-75
2021/10/11 00:36:03;;;;;;;140.60;64.13;;;;;;;8.90;92.31;102332.28;5011789;28;20029;-75
2021/10/11 00:38:28;;;;;;;134.88;63.42;;;;;;;9.01;92.88;102335.88;5015015;28;20032;-74
2021/10/11 00:40:54;;;;;;;145.27;67.28;;;;;;;9.11;93.45;102336.88;5034388;28;20040;-75
2021/10/11 00:43:20;;;;;;;148.90;63.58;;;;;;;9.10;93.49;102333.47;5016104;28;20453;-75
2021/10/11 00:45:45;;;;;;;162.35;69.05;;;;;;;9.27;93.76;102329.69;5019967;28;20089;-75
2021/10/11 00:48:11;;;;;;;165.18;69.47;;;;;;;9.31;94.16;102341.47;5012890;28;20057;-75
2021/10/11 00:50:36;;;;;;;150.32;67.00;;;;;;;9.30;93.83;102339.78;5010467;28;20032;-76
2021/10/11 00:53:02;;;;;;;152.32;70.32;;;;;;;9.32;93.89;102332.78;5009717;28;20022;-75
2021/10/11 00:55:28;;;;;;;161.18;70.25;;;;;;;9.39;94.41;102340.09;5020966;28;20067;-74
2021/10/11 00:57:53;;;;;;;152.00;69.95;;;;;;;9.45;94.09;102340.47;5012971;28;20509;-74
2021/10/11 01:00:19;;;;;;;152.98;69.00;;;;;;;9.40;94.59;102332.22;5013546;28;20029;-76
2021/10/11 01:02:46;;;;;;;151.35;68.82;;;;;;;9.49;94.63;102339.31;5009717;28;20046;-74
2021/10/11 01:05:11;;;;;;;161.63;73.53;;;;;;;9.47;94.82;102338.59;5015697;28;20092;-74
2021/10/11 01:07:37;;;;;;;166.52;71.97;;;;;;;9.47;95.02;102338.59;5012843;28;20041;-75
2021/10/11 01:10:03;;;;;;;157.68;71.35;;;;;;;9.45;95.20;102340.47;5012994;28;20032;-76
2021/10/11 01:12:29;;;;;;;153.88;67.57;;;;;;;9.43;95.62;102341.50;5014826;28;20038;-75
2021/10/11 01:14:55;;;;;;;166.27;74.30;;;;;;;9.45;95.54;102334.47;4997298;28;20022;-74
2021/10/11 01:17:20;;;;;;;158.05;71.32;;;;;;;9.48;95.69;102342.84;5017838;28;20041;-75
2021/10/11 01:19:50;;;;;;;174.63;73.10;;;;;;;9.52;96.03;102343.44;5006964;28;20033;-74
2021/10/11 01:22:17;;;;;;;162.88;71.07;;;;;;;9.50;95.81;102333.19;5019334;28;20426;-75
2021/10/11 01:24:43;;;;;;;153.40;69.75;;;;;;;9.49;95.92;102328.97;4995721;28;20497;-75
2021/10/11 01:27:09;;;;;;;161.38;70.38;;;;;;;9.51;95.88;102332.28;5009685;28;20030;-75
2021/10/11 01:29:34;;;;;;;168.70;72.13;;;;;;;9.52;96.46;102325.31;4998117;28;20026;-75
2021/10/11 01:32:00;;;;;;;158.00;70.85;;;;;;;9.53;96.29;102324.38;5008698;28;20395;-75
2021/10/11 01:34:25;;;;;;;170.48;75.07;;;;;;;9.61;96.37;102321.25;5005605;28;20029;-75
2021/10/11 01:36:50;;;;;;;161.13;70.60;;;;;;;9.59;96.37;102320.50;5003688;28;20037;-73
2021/10/11 01:39:16;;;;;;;161.45;72.35;;;;;;;9.57;96.56;102322.38;5023906;28;20021;-75
2021/10/11 01:41:42;;;;;;;167.35;74.40;;;;;;;9.62;96.53;102322.88;5007511;28;20042;-74
2021/10/11 01:44:07;;;;;;;166.45;73.78;;;;;;;9.62;96.83;102318.50;4989440;28;20029;-75
2021/10/11 01:46:34;;;;;;;154.55;71.50;;;;;;;9.66;96.46;102324.28;5019549;28;20254;-75
2021/10/11 01:48:59;;;;;;;150.63;69.00;;;;;;;9.70;96.40;102326.56;5006262;28;20038;-75
2021/10/11 01:51:25;;;;;;;168.27;71.18;;;;;;;9.72;96.57;102316.09;5007290;28;20061;-74
2021/10/11 01:53:51;;;;;;;163.27;70.38;;;;;;;9.66;96.66;102319.13;5004499;28;20076;-73
2021/10/11 01:56:16;;;;;;;158.82;69.18;;;;;;;9.64;96.63;102316.63;5013804;28;20430;-74
2021/10/11 01:58:42;;;;;;;160.15;68.88;;;;;;;9.65;96.96;102313.13;5006015;28;20046;-75
2021/10/11 02:01:07;;;;;;;158.15;68.68;;;;;;;9.74;96.95;102311.63;5011795;28;20055;-74
2021/10/11 02:03:33;;;;;;;161.25;67.78;;;;;;;9.72;96.92;102313.50;5009644;28;20124;-75
2021/10/11 02:05:58;;;;;;;166.07;70.50;;;;;;;9.77;96.87;102316.56;5006492;28;20037;-74
2021/10/11 02:08:24;;;;;;;151.52;65.53;;;;;;;9.71;96.98;102323.00;5004680;28;20079;-75
2021/10/11 02:10:50;;;;;;;155.27;65.05;;;;;;;9.74;97.49;102312.44;5011582;28;20037;-74
2021/10/11 02:13:15;;;;;;;151.38;66.20;;;;;;;9.75;97.60;102315.84;5005241;28;20038;-74
2021/10/11 02:15:41;;;;;;;139.57;61.47;;;;;;;9.72;97.79;102314.31;5007770;28;20326;-74
2021/10/11 02:18:07;;;;;;;131.50;59.65;;;;;;;9.71;97.81;102315.25;5013387;28;20097;-74
2021/10/11 02:20:32;;;;;;;145.73;61.50;;;;;;;9.75;98.03;102314.06;5008496;28;20096;-73
2021/10/11 02:22:58;;;;;;;143.68;61.75;;;;;;;9.85;98.36;102315.97;5004594;28;20044;-74
2021/10/11 02:25:23;;;;;;;137.70;60.53;;;;;;;9.82;98.35;102318.81;5007563;28;20030;-74
2021/10/11 02:27:49;;;;;;;111.57;52.25;;;;;;;9.80;98.35;102308.56;5024893;28;20042;-74
2021/10/11 02:30:14;;;;;;;130.30;57.47;;;;;;;9.84;98.56;102312.56;5020503;28;20030;-73
2021/10/11 02:32:41;;;;;;;131.60;57.38;;;;;;;9.88;98.31;102308.00;5021254;28;20100;-74
2021/10/11 02:35:08;;;;;;;133.98;56.30;;;;;;;9.90;98.40;102306.94;5009731;28;20479;-74
2021/10/11 02:37:34;;;;;;;115.50;53.17;;;;;;;9.96;98.74;102303.06;4993833;28;20025;-74
2021/10/11 02:40:00;;;;;;;117.88;52.55;;;;;;;9.96;98.63;102308.22;4986217;28;20080;-74
2021/10/11 02:42:25;;;;;;;116.90;52.47;;;;;;;9.93;98.76;102301.53;5001598;28;20037;-74
2021/10/11 02:44:51;;;;;;;104.07;47.08;;;;;;;9.92;98.75;102302.44;5004982;28;20049;-73
2021/10/11 02:47:17;;;;;;;111.18;47.97;;;;;;;9.92;98.88;102301.63;5003832;28;20067;-74
2021/10/11 02:49:43;;;;;;;112.18;47.83;;;;;;;9.91;99.12;102303.41;5005717;28;20459;-74
2021/10/11 02:52:08;;;;;;;106.00;45.03;;;;;;;9.92;99.11;102299.03;5011555;28;20479;-73
2021/10/11 02:54:34;;;;;;;96.28;43.85;;;;;;;9.92;99.43;102306.81;4987230;28;20040;-74
2021/10/11 02:57:00;;;;;;;105.00;45.80;;;;;;;9.90;99.47;102299.16;5006616;28;20092;-74
2021/10/11 02:59:26;;;;;;;105.95;44.00;;;;;;;9.98;99.58;102305.53;5006152;28;20029;-74
2021/10/11 03:01:51;;;;;;;99.45;44.30;;;;;;;10.01;99.49;102308.72;5011643;28;20052;-74
2021/10/11 03:04:17;;;;;;;98.32;42.70;;;;;;;10.03;99.60;102304.25;5009636;28;20040;-74
2021/10/11 03:06:42;;;;;;;90.47;42.55;;;;;;;10.04;99.60;102308.50;5013437;28;20053;-74
2021/10/11 03:09:08;;;;;;;93.03;39.55;;;;;;;10.02;99.56;102304.34;5009972;28;20038;-74
2021/10/11 03:11:34;;;;;;;91.90;40.22;;;;;;;10.02;99.69;102309.53;5010521;28;20029;-74
2021/10/11 03:14:00;;;;;;;91.28;38.72;;;;;;;10.04;100.00;102307.66;5011188;28;20026;-74
2021/10/11 03:16:25;;;;;;;103.32;41.63;;;;;;;10.06;100.00;102310.97;5017139;28;20034;-74
2021/10/11 03:18:51;;;;;;;101.90;40.22;;;;;;;10.05;100.00;102312.72;5013476;28;20471;-74
2021/10/11 03:21:18;;;;;;;86.55;37.58;;;;;;;10.07;100.00;102308.25;5012941;28;20506;-74
2021/10/11 03:23:50;;;;;;;103.65;39.83;;;;;;;10.08;100.00;102314.28;5010556;28;20253;-74
2021/10/11 03:26:16;;;;;;;90.37;37.90;;;;;;;10.11;100.00;102306.25;5012888;28;20034;-74
2021/10/11 03:28:42;;;;;;;86.68;37.60;;;;;;;10.13;100.00;102310.41;5014480;28;20398;-73
2021/10/11 03:31:08;;;;;;;86.97;38.25;;;;;;;10.16;100.00;102324.06;5007926;28;20038;-73
2021/10/11 03:33:33;;;;;;;89.45;38.47;;;;;;;10.17;100.00;102329.16;5006262;28;20727;-75
2021/10/11 03:35:59;;;;;;;93.85;39.53;;;;;;;10.17;100.00;102316.19;5010296;28;20022;-74
2021/10/11 03:38:25;;;;;;;86.82;37.08;;;;;;;10.16;100.00;102317.13;5006541;28;20038;-74
2021/10/11 03:40:50;;;;;;;87.75;35.58;;;;;;;10.16;100.00;102311.94;5005121;28;20113;-73
2021/10/11 03:43:16;;;;;;;78.55;34.28;;;;;;;10.14;100.00;102319.81;5008197;28;20038;-74
2021/10/11 03:45:41;;;;;;;78.85;33.22;;;;;;;10.11;100.00;102309.69;5009871;28;20022;-74
2021/10/11 03:48:07;;;;;;;76.00;33.75;;;;;;;10.18;100.00;102314.41;5010870;28;20037;-74
2021/10/11 03:50:33;;;;;;;86.32;34.15;;;;;;;10.17;100.00;102307.56;4990336;28;20395;-75
2021/10/11 03:52:58;;;;;;;70.53;34.40;;;;;;;10.16;100.00;102311.09;5009460;28;20106;-74
2021/10/11 03:55:24;;;;;;;80.43;32.05;;;;;;;10.14;100.00;102304.25;5015989;28;20034;-74
2021/10/11 03:57:49;;;;;;;80.55;33.55;;;;;;;10.14;100.00;102301.66;5011231;28;20045;-73
2021/10/11 04:00:15;;;;;;;67.75;29.95;;;;;;;10.16;100.00;102309.34;5009973;28;20034;-74
2021/10/11 04:02:41;;;;;;;68.72;31.48;;;;;;;10.15;100.00;102302.50;5008149;28;20694;-74
2021/10/11 04:05:07;;;;;;;65.18;28.15;;;;;;;10.16;100.00;102305.94;5011828;28;20034;-74
2021/10/11 04:07:34;;;;;;;67.00;28.15;;;;;;;10.12;100.00;102305.34;5013721;28;20116;-74
2021/10/11 04:10:03;;;;;;;65.30;28.92;;;;;;;10.10;100.00;102300.25;5030972;28;20034;-74
2021/10/11 04:12:36;;;;;;;63.70;26.48;;;;;;;10.10;100.00;102286.47;5017412;28;20131;-74
2021/10/11 04:15:06;;;;;;;58.40;24.48;;;;;;;10.08;100.00;102285.78;5010221;28;20072;-74
2021/10/11 04:17:37;;;;;;;60.28;25.70;;;;;;;10.08;100.00;102283.19;5010901;28;20045;-74
2021/10/11 04:20:06;;;;;;;48.55;24.15;;;;;;;10.16;100.00;102282.59;5023481;28;20055;-74
2021/10/11 04:22:32;;;;;;;61.28;24.13;;;;;;;10.10;100.00;102296.84;5014012;28;20138;-73
2021/10/11 04:24:57;;;;;;;57.25;23.70;;;;;;;10.08;100.00;102303.91;5014718;28;20453;-74
2021/10/11 04:27:23;;;;;;;48.45;23.50;;;;;;;10.09;100.00;102295.19;5013540;28;20056;-72
2021/10/11 04:29:48;;;;;;;54.28;22.70;;;;;;;10.07;100.00;102284.94;5008108;28;20372;-74
2021/10/11 04:32:14;;;;;;;46.50;20.83;;;;;;;10.07;100.00;102294.47;5012503;28;20025;-73
2021/10/11 04:34:39;;;;;;;55.15;23.75;;;;;;;10.11;100.00;102298.47;5030862;28;20036;-74
2021/10/11 04:37:05;;;;;;;51.05;19.90;;;;;;;10.11;100.00;102298.47;5013346;28;20467;-74
2021/10/11 04:39:30;;;;;;;46.28;20.65;;;;;;;10.08;100.00;102315.09;5011398;28;20400;-73
2021/10/11 04:41:56;;;;;;;45.55;18.67;;;;;;;10.08;100.00;102312.50;5011663;28;20022;-74
2021/10/11 04:44:21;;;;;;;46.38;19.52;;;;;;;10.07;100.00;102310.84;5012892;28;20399;-74
2021/10/11 04:46:47;;;;;;;45.15;19.02;;;;;;;10.08;100.00;102319.47;5010938;28;20072;-74
2021/10/11 04:49:12;;;;;;;43.20;19.02;;;;;;;10.13;100.00;102319.91;5009102;28;20029;-74
2021/10/11 04:51:37;;;;;;;43.65;18.73;;;;;;;10.11;100.00;102317.47;5011068;28;20052;-74
2021/10/11 04:54:03;;;;;;;48.00;18.70;;;;;;;10.19;100.00;102316.03;5003597;28;20025;-74
2021/10/11 04:56:28;;;;;;;42.50;17.63;;;;;;;10.24;100.00;102326.91;5009423;28;20396;-74
2021/10/11 04:58:54;;;;;;;37.25;16.80;;;;;;;10.24;100.00;102325.13;4992099;28;20041;-74
2021/10/11 05:01:21;;;;;;;36.90;15.93;;;;;;;10.29;100.00;102324.78;5020249;28;20140;-74
2021/10/11 05:03:46;;;;;;;35.78;16.70;;;;;;;10.27;100.00;102326.69;5008162;28;20132;-74
2021/10/11 05:06:12;;;;;;;38.65;16.55;;;;;;;10.25;100.00;102329.38;5008042;28;20044;-74
2021/10/11 05:08:37;;;;;;;36.53;15.73;;;;;;;10.31;100.00;102320.34;5012411;28;20037;-74
2021/10/11 05:11:04;;;;;;;31.60;15.35;;;;;;;10.29;100.00;102328.19;5013997;28;20041;-74
2021/10/11 05:13:29;;;;;;;31.23;14.20;;;;;;;10.31;100.00;102320.34;5008820;28;20087;-74
2021/10/11 05:15:55;;;;;;;36.65;14.77;;;;;;;10.30;100.00;102322.13;5012507;28;20038;-74
2021/10/11 05:18:20;;;;;;;34.17;13.40;;;;;;;10.32;100.00;102333.19;5018848;28;20064;-73
2021/10/11 05:20:51;;;;;;;35.58;14.32;;;;;;;10.41;100.00;102336.00;5013806;28;20349;-74
2021/10/11 05:23:18;;;;;;;30.70;13.23;;;;;;;10.34;100.00;102338.25;5015903;28;20037;-74
2021/10/11 05:25:44;;;;;;;29.65;13.38;;;;;;;10.32;100.00;102337.53;5013161;28;20479;-74
2021/10/11 05:28:10;;;;;;;26.17;11.43;;;;;;;10.31;100.00;102341.91;5009247;28;20083;-73
2021/10/11 05:30:39;;;;;;;26.75;11.65;;;;;;;10.29;100.00;102341.16;5009659;28;20445;-73
2021/10/11 05:33:05;;;;;;;29.00;11.75;;;;;;;10.27;100.00;102330.09;5013288;28;20033;-75
2021/10/11 05:35:30;;;;;;;27.70;11.50;;;;;;;10.26;100.00;102331.00;5027236;28;20030;-74
2021/10/11 05:37:56;;;;;;;32.58;12.50;;;;;;;10.29;100.00;102342.94;5008608;28;20414;-74
2021/10/11 05:40:21;;;;;;;36.53;13.77;;;;;;;10.29;100.00;102345.53;5011646;28;20083;-74
2021/10/11 05:42:47;;;;;;;28.80;11.82;;;;;;;10.33;100.00;102352.16;5010869;28;20529;-73
2021/10/11 05:45:12;;;;;;;23.75;11.68;;;;;;;10.30;100.00;102350.63;5017883;28;20467;-75
2021/10/11 05:47:38;;;;;;;24.50;10.32;;;;;;;10.29;100.00;102345.53;5009894;28;20034;-74
2021/10/11 05:50:05;;;;;;;26.10;9.82;;;;;;;10.28;100.00;102341.28;5015359;28;20034;-74
2021/10/11 05:52:30;;;;;;;23.88;10.30;;;;;;;10.27;100.00;102344.81;5008850;28;20021;-74
2021/10/11 05:54:56;;;;;;;18.67;9.23;;;;;;;10.24;100.00;102339.84;5012322;28;20045;-74
2021/10/11 05:57:21;;;;;;;25.20;9.88;;;;;;;10.23;100.00;102341.63;5009570;28;20029;-73
2021/10/11 05:59:47;;;;;;;27.50;9.95;;;;;;;10.23;100.00;102344.22;5017430;28;20406;-74
2021/10/11 06:02:12;;;;;;;24.27;10.85;;;;;;;10.22;100.00;102350.34;5015668;28;20634;-74
2021/10/11 06:04:38;;;;;;;24.42;10.57;;;;;;;10.22;100.00;102345.16;4995207;28;20041;-73
2021/10/11 06:07:03;;;;;;;22.98;10.73;;;;;;;10.23;100.00;102341.63;5011517;28;20026;-73
2021/10/11 06:09:29;;;;;;;21.42;9.93;;;;;;;10.22;100.00;102342.56;5011620;28;20025;-73
2021/10/11 06:11:54;;;;;;;19.40;8.93;;;;;;;10.20;100.00;102343.63;5008865;28;20474;-73
2021/10/11 06:14:20;;;;;;;16.85;8.57;;;;;;;10.18;100.00;102333.38;5005180;28;20033;-74
2021/10/11 06:16:46;;;;;;;20.98;9.05;;;;;;;10.19;99.93;102341.97;4992972;28;20306;-73
2021/10/11 06:19:11;;;;;;;24.83;9.82;;;;;;;10.18;100.00;102351.53;5008899;28;20092;-74
2021/10/11 06:21:37;;;;;;;20.83;7.75;;;;;;;10.17;99.90;102343.84;5009637;28;20502;-73
2021/10/11 06:24:03;;;;;;;18.48;8.38;;;;;;;10.17;99.81;102349.88;5012242;28;20036;-74
2021/10/11 06:26:29;;;;;;;17.67;8.70;;;;;;;10.17;99.74;102341.25;5010941;28;20042;-74
2021/10/11 06:28:54;;;;;;;21.27;8.73;;;;;;;10.16;99.29;102343.03;5008829;28;20053;-74
2021/10/11 06:31:20;;;;;;;18.75;8.70;;;;;;;10.18;99.37;102350.69;5011031;28;20037;-74
2021/10/11 06:33:45;;;;;;;20.02;9.00;;;;;;;10.17;99.02;102343.84;5030691;28;20033;-74
2021/10/11 06:36:11;;;;;;;21.75;8.80;;;;;;;10.20;98.88;102359.19;5010345;28;20033;-73
2021/10/11 06:38:36;;;;;;;21.08;9.25;;;;;;;10.19;98.85;102363.56;5011494;28;20034;-74
2021/10/11 06:41:02;;;;;;;16.30;8.20;;;;;;;10.22;98.27;102362.47;5011840;28;20029;-74
2021/10/11 06:43:28;;;;;;;18.92;8.38;;;;;;;10.25;97.92;102359.66;5008035;28;20599;-74
2021/10/11 06:45:53;;;;;;;20.95;8.80;;;;;;;10.27;97.26;102365.56;4995168;28;20069;-74
2021/10/11 06:48:19;;;;;;;15.27;6.90;;;;;;;10.30;97.21;102361.00;5003398;28;20033;-74
2021/10/11 06:50:45;;;;;;;16.35;6.90;;;;;;;10.35;96.56;102365.00;5005364;28;20026;-74
2021/10/11 06:53:11;;;;;;;28.73;13.95;;;;;;;10.39;96.41;102363.84;5005438;28;20189;-74
2021/10/11 06:55:37;;;;;;;28.98;13.38;;;;;;;10.47;95.80;102379.63;4991679;28;20021;-74
2021/10/11 06:58:02;;;;;;;23.10;9.88;;;;;;;10.58;95.49;102365.84;5007064;28;20570;-74
2021/10/11 07:00:28;;;;;;;18.33;8.15;;;;;;;10.65;94.89;102360.06;5007327;28;20506;-74
2021/10/11 07:02:53;;;;;;;18.92;7.78;;;;;;;10.75;94.35;102361.94;5027505;28;20106;-74
2021/10/11 07:05:19;;;;;;;19.77;6.28;;;;;;;10.85;93.93;102368.06;5008353;28;20029;-74
2021/10/11 07:07:46;;;;;;;18.15;5.85;;;;;;;10.98;93.38;102368.78;5005921;28;20049;-73
2021/10/11 07:10:11;;;;;;;22.40;6.53;;;;;;;11.19;92.94;102374.03;4993225;28;20477;-74
2021/10/11 07:12:37;;;;;;;18.25;6.90;;;;;;;11.52;91.73;102379.25;5006351;28;20033;-74
2021/10/11 07:15:03;;;;;;;16.98;6.93;;;;;;;11.72;89.57;102386.25;5004610;28;20033;-74
2021/10/11 07:17:28;;;;;;;19.35;6.80;;;;;;;11.97;88.75;102385.09;5007973;28;20045;-74
2021/10/11 07:19:54;;;;;;;19.17;5.90;;;;;;;12.26;87.78;102387.91;5006688;28;20073;-74
2021/10/11 07:22:19;;;;;;;12.32;6.18;;;;;;;12.48;86.79;102387.88;5006250;28;20407;-74
2021/10/11 07:24:47;;;;;;;14.18;6.20;;;;;;;12.59;85.74;102383.38;5006822;28;20076;-73
2021/10/11 07:27:13;;;;;;;14.68;5.70;;;;;;;12.57;85.63;102392.28;5017227;28;20033;-75
2021/10/11 07:29:38;;;;;;;13.13;6.00;;;;;;;12.42;85.50;102382.22;5016748;28;20556;-74
2021/10/11 07:32:04;;;;;;;14.88;6.28;;;;;;;12.27;86.33;102383.50;5019118;28;20104;-76
2021/10/11 07:34:30;;;;;;;21.23;6.28;;;;;;;12.12;86.16;102390.00;5013427;28;20026;-75
2021/10/11 07:36:55;;;;;;;19.67;5.85;;;;;;;12.06;86.63;102393.94;5016168;28;20026;-75
2021/10/11 07:39:20;;;;;;;19.88;6.85;;;;;;;12.03;87.33;102394.97;5013352;28;20091;-74
2021/10/11 07:41:46;;;;;;;18.33;6.63;;;;;;;12.08;87.47;102399.81;5015545;28;20041;-74
2021/10/11 07:44:11;;;;;;;15.38;5.50;;;;;;;12.16;87.65;102400.00;5014381;28;20041;-75
2021/10/11 07:46:38;;;;;;;15.55;5.90;;;;;;;12.16;87.30;102401.78;5019768;28;20041;-76
2021/10/11 07:49:04;;;;;;;17.80;6.05;;;;;;;12.16;87.23;102407.00;5008486;28;20033;-75
2021/10/11 07:51:29;;;;;;;18.38;5.38;;;;;;;12.15;87.32;102408.78;5017454;28;20033;-76
2021/10/11 07:53:55;;;;;;;16.40;5.57;;;;;;;12.20;87.38;102414.41;5019204;28;20079;-75
2021/10/11 07:56:20;;;;;;;15.52;5.07;;;;;;;12.23;87.52;102406.34;5021653;28;20022;-75
2021/10/11 07:58:46;;;;;;;15.90;5.30;;;;;;;12.25;86.98;102416.63;5026319;28;20409;-75
2021/10/11 08:01:11;;;;;;;18.17;5.82;;;;;;;12.25;87.15;102421.81;5013558;28;20067;-75
2021/10/11 08:03:37;;;;;;;18.55;5.68;;;;;;;12.33;87.27;102414.19;5018018;28;20029;-75
2021/10/11 08:06:07;;;;;;;16.08;4.80;;;;;;;12.57;86.22;102408.72;5012118;28;20034;-76
2021/10/11 08:08:33;;;;;;;18.00;5.60;;;;;;;12.65;85.43;102427.09;5000375;28;20041;-76
2021/10/11 08:11:01;;;;;;;24.25;5.72;;;;;;;12.85;83.96;102424.59;5017552;28;20022;-77
2021/10/11 08:13:27;;;;;;;13.15;4.80;;;;;;;12.89;84.02;102427.75;5020542;28;20479;-76
2021/10/11 08:15:53;;;;;;;16.77;4.95;;;;;;;12.94;83.34;102429.00;5017449;28;20390;-76
2021/10/11 08:18:18;;;;;;;10.95;4.55;;;;;;;13.24;80.88;102430.75;5020918;28;20030;-77
2021/10/11 08:20:45;;;;;;;17.23;4.25;;;;;;;13.43;80.02;102431.78;5018550;28;20038;-75
2021/10/11 08:23:11;;;;;;;21.33;4.20;;;;;;;13.33;79.39;102434.34;5007435;28;20041;-76
2021/10/11 08:25:36;;;;;;;14.80;3.28;;;;;;;13.29;79.26;102437.31;5015741;28;20077;-75
2021/10/11 08:28:03;;;;;;;19.77;3.75;;;;;;;13.18;78.88;102431.25;5020992;28;20471;-76
2021/10/11 08:30:28;;;;;;;16.27;3.92;;;;;;;13.00;79.59;102446.72;5018589;28;20458;-75
2021/10/11 08:32:54;;;;;;;19.50;3.85;;;;;;;12.97;80.21;102448.75;5013971;28;20040;-76
2021/10/11 08:35:20;;;;;;;19.33;4.20;;;;;;;12.87;81.15;102443.50;5020550;28;20031;-76
2021/10/11 08:37:45;;;;;;;14.07;3.13;;;;;;;12.82;81.26;102443.06;5014819;28;20026;-76
2021/10/11 08:40:11;;;;;;;11.85;3.53;;;;;;;12.85;80.46;102440.22;5029236;28;20033;-76
2021/10/11 08:42:38;;;;;;;11.80;3.22;;;;;;;12.83;80.30;102444.72;5012312;28;20052;-76
2021/10/11 08:45:06;;;;;;;15.70;4.15;;;;;;;12.87;80.76;102442.69;5014035;28;20041;-76
2021/10/11 08:47:32;;;;;;;14.95;3.42;;;;;;;13.06;81.17;102442.75;4995069;28;20138;-77
2021/10/11 08:49:57;;;;;;;18.25;4.43;;;;;;;13.14;81.17;102434.28;5006217;28;20696;-76
2021/10/11 08:52:23;;;;;;;14.57;3.95;;;;;;;13.18;79.96;102433.84;5022912;28;20398;-76
2021/10/11 08:54:50;;;;;;;26.85;3.90;;;;;;;13.23;79.12;102430.88;5014823;28;20033;-76
2021/10/11 08:57:29;;;;;;;11.80;2.90;;;;;;;13.28;79.17;102438.28;5014398;28;20041;-76
2021/10/11 09:00:16;;;;;;;15.45;3.67;;;;;;;13.42;79.04;102428.31;4998219;28;20038;-76
2021/10/11 09:02:58;;;;;;;13.38;3.30;;;;;;;13.59;77.62;102429.44;5019675;28;20030;-76
2021/10/11 09:05:33;;;;;;;13.17;2.77;;;;;;;13.52;77.09;102430.94;5013566;28;20620;-76
2021/10/11 09:08:00;;;;;;;16.98;2.70;;;;;;;13.66;77.43;102439.34;5021580;28;20471;-76
2021/10/11 09:10:27;;;;;;;14.05;2.97;;;;;;;13.70;77.12;102431.09;5012516;28;20038;-76
2021/10/11 09:12:52;;;;;;;16.05;3.00;;;;;;;13.70;77.93;102433.69;5010740;28;20041;-75
2021/10/11 09:15:18;;;;;;;12.88;2.67;;;;;;;13.79;76.95;102439.88;5011636;28;20063;-76
2021/10/11 09:17:51;;;;;;;17.00;3.40;;;;;;;13.63;76.98;102438.63;5024316;28;20041;-77
2021/10/11 09:20:19;;;;;;;14.95;3.83;;;;;;;13.69;77.07;102433.84;5010784;28;20037;-76
2021/10/11 09:22:46;;;;;;;14.32;3.30;;;;;;;13.58;77.84;102440.00;5021916;28;20392;-76
2021/10/11 09:25:13;;;;;;;12.85;2.90;;;;;;;13.49;77.62;102433.00;5002168;28;20080;-77
2021/10/11 09:27:49;;;;;;;10.32;3.08;;;;;;;13.52;77.56;102438.75;5015484;28;20033;-76
2021/10/11 09:30:15;;;;;;;15.75;3.05;;;;;;;13.42;77.55;102437.94;5005849;28;20049;-77
2021/10/11 09:32:41;;;;;;;17.92;2.90;;;;;;;13.27;77.92;102442.66;5011262;28;20167;-76
2021/10/11 09:35:18;;;;;;;13.90;2.70;;;;;;;13.29;77.52;102443.34;5011119;28;20030;-76
2021/10/11 09:37:51;;;;;;;16.52;4.10;;;;;;;13.35;78.20;102439.41;5018657;28;20045;-75
2021/10/11 09:40:19;;;;;;;9.60;2.67;;;;;;;13.42;77.36;102450.94;5010294;28;20470;-76
2021/10/11 09:42:45;;;;;;;14.20;2.83;;;;;;;13.34;77.16;102451.63;5010725;28;20084;-76
2021/10/11 09:45:11;;;;;;;18.05;4.18;;;;;;;13.51;77.82;102449.34;5014177;28;20041;-75
2021/10/11 09:47:38;;;;;;;21.08;4.53;;;;;;;13.41;76.87;102446.69;5009122;28;20042;-76
2021/10/11 09:50:09;;;;;;;19.58;4.10;;;;;;;13.42;77.51;102440.53;5004385;28;20029;-75
2021/10/11 09:52:37;;;;;;;12.27;3.05;;;;;;;13.37;76.45;102435.75;5006869;28;20041;-75
2021/10/11 09:55:05;;;;;;;12.95;2.55;;;;;;;13.41;76.48;102434.50;5016178;28;20026;-76
2021/10/11 09:57:31;;;;;;;17.23;3.92;;;;;;;13.44;76.69;102436.81;5022555;28;20030;-75
2021/10/11 10:00:04;;;;;;;14.95;4.05;;;;;;;13.58;75.17;102434.78;5025104;28;20630;-76
2021/10/11 10:02:39;;;;;;;7.93;2.60;;;;;;;13.73;74.77;102438.66;5010698;28;20491;-75
2021/10/11 10:05:11;;;;;;;14.25;2.60;;;;;;;13.79;74.97;102437.28;5007711;28;20533;-75
2021/10/11 10:07:42;;;;;;;11.03;2.63;;;;;;;13.94;74.19;102430.69;5011957;28;20025;-76
2021/10/11 10:10:09;;;;;;;17.45;3.60;;;;;;;14.00;74.62;102434.53;5000856;28;20479;-76
2021/10/11 10:12:46;;;;;;;10.20;2.67;;;;;;;14.01;74.11;102431.78;4996576;28;20067;-75
2021/10/11 10:15:12;;;;;;;9.77;2.60;;;;;;;14.02;74.00;102428.19;5022888;28;20030;-75
2021/10/11 10:17:38;;;;;;;11.60;2.38;;;;;;;14.09;72.47;102423.25;5005631;28;20476;-76
2021/10/11 10:20:11;;;;;;;10.00;2.17;;;;;;;14.19;72.87;102429.28;5004148;28;20383;-75
2021/10/11 10:22:39;;;;;;;8.40;2.42;;;;;;;14.23;72.58;102426.38;5018869;28;20034;-75
2021/10/11 10:25:10;;;;;;;13.13;2.03;;;;;;;14.33;72.09;102425.38;5007340;28;20026;-75
2021/10/11 10:27:40;;;;;;;15.38;2.88;;;;;;;14.37;69.41;102421.56;5019490;28;20034;-76
2021/10/11 10:30:22;;;;;;;11.18;2.35;;;;;;;14.32;69.84;102422.94;5024595;28;20137;-76
2021/10/11 10:33:01;;;;;;;15.05;2.40;;;;;;;14.34;70.16;102418.41;5004018;28;20656;-76
2021/10/11 10:35:30;;;;;;;14.55;3.10;;;;;;;14.32;69.56;102417.72;5010956;28;20028;-74
2021/10/11 10:37:56;;;;;;;8.00;1.90;;;;;;;14.33;69.09;102424.56;5013076;28;20045;-75
2021/10/11 10:40:30;;;;;;;10.50;2.17;;;;;;;14.53;69.44;102417.50;5016040;28;20033;-74
2021/10/11 10:43:09;;;;;;;8.93;2.15;;;;;;;14.55;68.55;102424.22;5010526;28;20042;-75
2021/10/11 10:45:38;;;;;;;10.95;1.50;;;;;;;14.56;67.97;102414.59;5013762;28;20049;-75
2021/10/11 10:48:20;;;;;;;10.30;2.25;;;;;;;14.52;67.60;102419.31;5016233;28;20037;-75
2021/10/11 10:50:46;;;;;;;13.77;2.10;;;;;;;14.65;68.87;102424.22;5010206;28;20045;-76
2021/10/11 10:53:12;;;;;;;16.73;2.42;;;;;;;14.66;67.15;102415.44;5009181;28;20108;-74
2021/10/11 10:55:39;;;;;;;8.68;2.20;;;;;;;14.65;68.42;102423.41;5006989;28;20060;-76
2021/10/11 10:58:08;;;;;;;16.70;2.13;;;;;;;14.60;67.89;102423.84;5011563;28;20550;-75
2021/10/11 11:00:34;;;;;;;18.45;2.95;;;;;;;14.74;67.72;102425.97;5008054;28;20455;-75
2021/10/11 11:03:00;;;;;;;9.25;1.60;;;;;;;14.56;68.35;102423.28;5009859;28;20040;-75
2021/10/11 11:05:27;;;;;;;17.20;3.25;;;;;;;14.57;68.08;102427.53;5008075;28;20026;-73
2021/10/11 11:07:54;;;;;;;32.83;13.25;;;;;;;14.64;68.56;102427.81;5009418;28;20034;-74
2021/10/11 11:10:23;;;;;;;11.07;2.95;;;;;;;14.64;68.24;102422.59;5013498;28;20087;-75